sensor_id;sensor_type;location;lat;lon;timestamp;temperature;humidity
5286;DHT22;2665;53.112;7.358;2023-06-14T07:32:10;19.70;99.90
5286;DHT22;2665;53.112;7.358;2023-06-14T07:34:36;19.60;99.90
5286;DHT22;2665;53.112;7.358;2023-06-14T07:37:01;19.70;99.90
5286;DHT22;2665;53.112;7.358;2023-06-14T07:39:27;19.80;99.90
5286;DHT22;2665;53.112;7.358;2023-06-14T07:41:53;19.80;99.90
5286;DHT22;2665;53.112;7.358;2023-06-14T07:44:18;19.90;99.90
5286;DHT22;2665;53.112;7.358;2023-06-14T07:46:44;19.90;99.90
5286;DHT22;2665;53.112;7.358;2023-06-14T07:49:11;20.00;99.90
5286;DHT22;2665;53.112;7.358;2023-06-14T07:51:37;20.10;99.90
5286;DHT22;2665;53.112;7.358;2023-06-14T07:54:03;20.20;99.90
5286;DHT22;2665;53.112;7.358;2023-06-14T07:56:28;20.30;99.90
5286;DHT22;2665;53.112;7.358;2023-06-14T07:58:54;20.40;99.90
5286;DHT22;2665;53.112;7.358;2023-06-14T08:01:20;20.60;99.90
5286;DHT22;2665;53.112;7.358;2023-06-14T08:03:45;20.70;99.90
5286;DHT22;2665;53.112;7.358;2023-06-14T08:06:11;20.70;99.90
5286;DHT22;2665;53.112;7.358;2023-06-14T08:08:37;20.70;99.90
5286;DHT22;2665;53.112;7.358;2023-06-14T08:11:02;20.70;99.90
5286;DHT22;2665;53.112;7.358;2023-06-14T08:13:28;20.70;99.90
5286;DHT22;2665;53.112;7.358;2023-06-14T08:15:53;20.70;99.90
5286;DHT22;2665;53.112;7.358;2023-06-14T08:18:21;20.70;99.90
5286;DHT22;2665;53.112;7.358;2023-06-14T08:20:46;20.70;99.90
5286;DHT22;2665;53.112;7.358;2023-06-14T08:23:12;20.70;99.90
5286;DHT22;2665;53.112;7.358;2023-06-14T08:25:38;20.80;99.90
5286;DHT22;2665;53.112;7.358;2023-06-14T08:28:04;20.90;99.90
5286;DHT22;2665;53.112;7.358;2023-06-14T08:30:30;21.00;99.90
5286;DHT22;2665;53.112;7.358;2023-06-14T08:32:55;21.00;99.90
5286;DHT22;2665;53.112;7.358;2023-06-14T08:35:22;21.10;99.90
5286;DHT22;2665;53.112;7.358;2023-06-14T08:37:48;21.10;99.90
5286;DHT22;2665;53.112;7.358;2023-06-14T08:40:22;21.10;99.90
5286;DHT22;2665;53.112;7.358;2023-06-14T08:42:51;21.10;99.90
5286;DHT22;2665;53.112;7.358;2023-06-14T08:45:17;21.10;99.90
5286;DHT22;2665;53.112;7.358;2023-06-14T08:47:44;21.10;99.90
5286;DHT22;2665;53.112;7.358;2023-06-14T08:50:11;21.20;99.90
5286;DHT22;2665;53.112;7.358;2023-06-14T08:52:38;21.30;99.90
5286;DHT22;2665;53.112;7.358;2023-06-14T08:55:07;21.40;99.90
5286;DHT22;2665;53.112;7.358;2023-06-14T08:57:36;21.50;99.90
5286;DHT22;2665;53.112;7.358;2023-06-14T09:00:03;21.70;99.90
5286;DHT22;2665;53.112;7.358;2023-06-14T09:02:37;21.80;99.90
5286;DHT22;2665;53.112;7.358;2023-06-14T09:05:03;21.80;99.90
5286;DHT22;2665;53.112;7.358;2023-06-14T09:07:29;21.90;99.90
5286;DHT22;2665;53.112;7.358;2023-06-14T09:10:11;22.00;99.90
5286;DHT22;2665;53.112;7.358;2023-06-14T09:12:37;22.10;99.90
5286;DHT22;2665;53.112;7.358;2023-06-14T09:15:06;22.10;99.90
5286;DHT22;2665;53.112;7.358;2023-06-14T09:17:35;22.10;99.90
5286;DHT22;2665;53.112;7.358;2023-06-14T09:20:04;22.30;99.90
5286;DHT22;2665;53.112;7.358;2023-06-14T09:22:39;22.40;99.90
5286;DHT22;2665;53.112;7.358;2023-06-14T09:25:05;22.50;99.90
5286;DHT22;2665;53.112;7.358;2023-06-14T09:27:32;22.50;99.90
5286;DHT22;2665;53.112;7.358;2023-06-14T09:29:57;22.60;99.90
5286;DHT22;2665;53.112;7.358;2023-06-14T09:32:23;22.80;99.90
5286;DHT22;2665;53.112;7.358;2023-06-14T09:34:50;22.90;99.90
5286;DHT22;2665;53.112;7.358;2023-06-14T09:37:29;23.00;99.90
5286;DHT22;2665;53.112;7.358;2023-06-14T09:39:55;23.10;99.90
5286;DHT22;2665;53.112;7.358;2023-06-14T09:42:20;23.20;99.90
5286;DHT22;2665;53.112;7.358;2023-06-14T09:44:49;23.30;99.90
5286;DHT22;2665;53.112;7.358;2023-06-14T09:47:15;23.40;99.90
5286;DHT22;2665;53.112;7.358;2023-06-14T09:49:42;23.50;99.90
5286;DHT22;2665;53.112;7.358;2023-06-14T09:52:12;23.50;99.90
5286;DHT22;2665;53.112;7.358;2023-06-14T09:54:43;23.50;99.90
5286;DHT22;2665;53.112;7.358;2023-06-14T09:57:13;23.50;99.90
5286;DHT22;2665;53.112;7.358;2023-06-14T09:59:46;23.60;99.90
5286;DHT22;2665;53.112;7.358;2023-06-14T10:02:25;23.70;99.90
5286;DHT22;2665;53.112;7.358;2023-06-14T10:07:37;23.80;99.90
5286;DHT22;2665;53.112;7.358;2023-06-14T10:10:04;23.90;99.90
5286;DHT22;2665;53.112;7.358;2023-06-14T10:12:31;24.00;99.90
5286;DHT22;2665;53.112;7.358;2023-06-14T10:14:57;24.10;99.90
5286;DHT22;2665;53.112;7.358;2023-06-14T10:17:50;24.20;99.90
5286;DHT22;2665;53.112;7.358;2023-06-14T10:20:21;24.30;99.90
5286;DHT22;2665;53.112;7.358;2023-06-14T10:23:06;24.40;99.90
5286;DHT22;2665;53.112;7.358;2023-06-14T10:25:34;24.50;99.90
5286;DHT22;2665;53.112;7.358;2023-06-14T10:28:18;24.50;99.90
5286;DHT22;2665;53.112;7.358;2023-06-14T10:31:07;24.60;99.90
5286;DHT22;2665;53.112;7.358;2023-06-14T10:33:41;24.70;99.90
5286;DHT22;2665;53.112;7.358;2023-06-14T10:36:31;24.70;99.90
5286;DHT22;2665;53.112;7.358;2023-06-14T10:39:08;24.80;99.90
5286;DHT22;2665;53.112;7.358;2023-06-14T10:41:38;25.00;99.90
5286;DHT22;2665;53.112;7.358;2023-06-14T10:54:20;25.60;99.90
5286;DHT22;2665;53.112;7.358;2023-06-14T10:56:52;25.60;99.90
5286;DHT22;2665;53.112;7.358;2023-06-14T10:59:19;25.70;99.90
5286;DHT22;2665;53.112;7.358;2023-06-14T11:01:58;25.70;99.90
5286;DHT22;2665;53.112;7.358;2023-06-14T11:04:48;25.90;99.90
5286;DHT22;2665;53.112;7.358;2023-06-14T11:12:47;26.30;99.90
5286;DHT22;2665;53.112;7.358;2023-06-14T11:15:14;26.40;99.90
5286;DHT22;2665;53.112;7.358;2023-06-14T11:17:39;26.60;99.90
5286;DHT22;2665;53.112;7.358;2023-06-14T11:20:14;26.80;99.90
5286;DHT22;2665;53.112;7.358;2023-06-14T11:22:44;27.40;99.90
5286;DHT22;2665;53.112;7.358;2023-06-14T11:25:11;28.30;99.90
5286;DHT22;2665;53.112;7.358;2023-06-14T11:27:37;29.10;99.90
5286;DHT22;2665;53.112;7.358;2023-06-14T11:30:03;29.60;99.90
5286;DHT22;2665;53.112;7.358;2023-06-14T11:32:31;30.30;99.90
5286;DHT22;2665;53.112;7.358;2023-06-14T11:34:56;31.10;99.90
5286;DHT22;2665;53.112;7.358;2023-06-14T11:37:24;31.50;99.90
5286;DHT22;2665;53.112;7.358;2023-06-14T11:39:51;31.60;99.90
5286;DHT22;2665;53.112;7.358;2023-06-14T11:42:17;31.60;99.90
5286;DHT22;2665;53.112;7.358;2023-06-14T11:44:46;31.50;99.90
5286;DHT22;2665;53.112;7.358;2023-06-14T11:47:12;31.20;99.90
5286;DHT22;2665;53.112;7.358;2023-06-14T11:49:38;31.30;99.90
5286;DHT22;2665;53.112;7.358;2023-06-14T11:52:04;31.50;99.90
5286;DHT22;2665;53.112;7.358;2023-06-14T11:54:31;31.80;99.90
5286;DHT22;2665;53.112;7.358;2023-06-14T11:56:57;31.50;99.90
5286;DHT22;2665;53.112;7.358;2023-06-14T11:59:24;31.30;99.90
5286;DHT22;2665;53.112;7.358;2023-06-14T12:01:50;31.30;99.90
5286;DHT22;2665;53.112;7.358;2023-06-14T12:04:23;31.30;99.90
5286;DHT22;2665;53.112;7.358;2023-06-14T12:06:50;31.20;99.90
5286;DHT22;2665;53.112;7.358;2023-06-14T12:09:18;31.10;99.90
5286;DHT22;2665;53.112;7.358;2023-06-14T12:11:45;31.70;99.90
5286;DHT22;2665;53.112;7.358;2023-06-14T12:14:11;32.10;99.90
5286;DHT22;2665;53.112;7.358;2023-06-14T12:16:40;32.60;99.90
5286;DHT22;2665;53.112;7.358;2023-06-14T12:19:16;32.70;99.90
5286;DHT22;2665;53.112;7.358;2023-06-14T12:21:45;32.20;99.90
5286;DHT22;2665;53.112;7.358;2023-06-14T12:24:12;31.20;99.90
5286;DHT22;2665;53.112;7.358;2023-06-14T12:26:39;30.60;99.90
5286;DHT22;2665;53.112;7.358;2023-06-14T12:29:06;30.20;99.90
5286;DHT22;2665;53.112;7.358;2023-06-14T12:31:32;30.80;99.90
5286;DHT22;2665;53.112;7.358;2023-06-14T12:33:58;31.50;99.90
5286;DHT22;2665;53.112;7.358;2023-06-14T12:36:24;31.10;99.90
5286;DHT22;2665;53.112;7.358;2023-06-14T12:38:51;31.20;99.90
5286;DHT22;2665;53.112;7.358;2023-06-14T12:41:19;30.80;99.90
5286;DHT22;2665;53.112;7.358;2023-06-14T12:43:47;31.20;99.90
5286;DHT22;2665;53.112;7.358;2023-06-14T12:46:12;31.50;99.90
5286;DHT22;2665;53.112;7.358;2023-06-14T12:48:38;31.20;99.90
5286;DHT22;2665;53.112;7.358;2023-06-14T12:51:03;31.50;99.90
5286;DHT22;2665;53.112;7.358;2023-06-14T12:53:29;31.20;99.90
5286;DHT22;2665;53.112;7.358;2023-06-14T12:55:54;30.20;99.90
5286;DHT22;2665;53.112;7.358;2023-06-14T12:58:20;29.70;99.90
5286;DHT22;2665;53.112;7.358;2023-06-14T13:00:46;29.20;99.90
5286;DHT22;2665;53.112;7.358;2023-06-14T13:03:12;30.00;99.90
5286;DHT22;2665;53.112;7.358;2023-06-14T13:05:38;30.20;99.90
5286;DHT22;2665;53.112;7.358;2023-06-14T13:08:07;29.80;99.90
5286;DHT22;2665;53.112;7.358;2023-06-14T13:10:33;29.30;99.90
5286;DHT22;2665;53.112;7.358;2023-06-14T13:12:59;28.80;99.90
5286;DHT22;2665;53.112;7.358;2023-06-14T13:15:25;28.40;99.90
5286;DHT22;2665;53.112;7.358;2023-06-14T13:17:52;29.10;99.90
5286;DHT22;2665;53.112;7.358;2023-06-14T13:20:18;28.60;99.90
5286;DHT22;2665;53.112;7.358;2023-06-14T13:22:43;28.00;99.90
5286;DHT22;2665;53.112;7.358;2023-06-14T13:25:09;27.50;99.90
5286;DHT22;2665;53.112;7.358;2023-06-14T13:27:35;27.40;99.90
5286;DHT22;2665;53.112;7.358;2023-06-14T13:30:00;28.30;99.90
5286;DHT22;2665;53.112;7.358;2023-06-14T13:32:26;29.60;99.90
5286;DHT22;2665;53.112;7.358;2023-06-14T13:34:52;30.90;99.90
5286;DHT22;2665;53.112;7.358;2023-06-14T13:37:17;31.80;99.90
5286;DHT22;2665;53.112;7.358;2023-06-14T13:39:43;31.50;99.90
5286;DHT22;2665;53.112;7.358;2023-06-14T13:42:08;30.50;99.90
5286;DHT22;2665;53.112;7.358;2023-06-14T13:44:34;29.90;99.90
5286;DHT22;2665;53.112;7.358;2023-06-14T13:47:00;29.40;99.90
5286;DHT22;2665;53.112;7.358;2023-06-14T13:49:25;29.50;99.90
5286;DHT22;2665;53.112;7.358;2023-06-14T13:51:51;30.30;99.90
5286;DHT22;2665;53.112;7.358;2023-06-14T13:54:19;30.90;99.90
5286;DHT22;2665;53.112;7.358;2023-06-14T13:56:45;31.50;99.90
5286;DHT22;2665;53.112;7.358;2023-06-14T13:59:11;31.50;99.90
5286;DHT22;2665;53.112;7.358;2023-06-14T14:01:37;30.60;99.90
5286;DHT22;2665;53.112;7.358;2023-06-14T14:04:03;29.70;99.90
5286;DHT22;2665;53.112;7.358;2023-06-14T14:06:30;28.20;99.90
5286;DHT22;2665;53.112;7.358;2023-06-14T14:08:56;27.90;99.90
5286;DHT22;2665;53.112;7.358;2023-06-14T14:11:22;27.40;99.90
5286;DHT22;2665;53.112;7.358;2023-06-14T14:13:47;27.40;99.90
5286;DHT22;2665;53.112;7.358;2023-06-14T14:16:13;28.50;99.90
5286;DHT22;2665;53.112;7.358;2023-06-14T14:18:39;29.80;99.90
5286;DHT22;2665;53.112;7.358;2023-06-14T14:21:05;30.90;99.90
5286;DHT22;2665;53.112;7.358;2023-06-14T14:23:30;31.70;99.90
5286;DHT22;2665;53.112;7.358;2023-06-14T14:25:56;32.50;99.90
5286;DHT22;2665;53.112;7.358;2023-06-14T14:28:22;33.30;99.90
5286;DHT22;2665;53.112;7.358;2023-06-14T14:30:48;33.90;99.90
5286;DHT22;2665;53.112;7.358;2023-06-14T14:33:14;34.20;99.90
5286;DHT22;2665;53.112;7.358;2023-06-14T14:35:45;34.30;99.90
5286;DHT22;2665;53.112;7.358;2023-06-14T14:38:14;33.30;99.90
5286;DHT22;2665;53.112;7.358;2023-06-14T14:40:41;33.50;99.90
5286;DHT22;2665;53.112;7.358;2023-06-14T14:43:07;33.80;99.90
5286;DHT22;2665;53.112;7.358;2023-06-14T14:45:33;34.20;99.90
5286;DHT22;2665;53.112;7.358;2023-06-14T14:48:01;34.50;99.90
5286;DHT22;2665;53.112;7.358;2023-06-14T14:50:27;34.70;99.90
5286;DHT22;2665;53.112;7.358;2023-06-14T14:52:53;34.60;99.90
5286;DHT22;2665;53.112;7.358;2023-06-14T14:55:18;34.60;99.90
5286;DHT22;2665;53.112;7.358;2023-06-14T14:57:45;34.70;99.90
5286;DHT22;2665;53.112;7.358;2023-06-14T15:00:11;34.90;99.90
5286;DHT22;2665;53.112;7.358;2023-06-14T15:02:37;35.40;99.90
5286;DHT22;2665;53.112;7.358;2023-06-14T15:05:03;35.60;99.90
5286;DHT22;2665;53.112;7.358;2023-06-14T15:07:30;36.00;99.90
5286;DHT22;2665;53.112;7.358;2023-06-14T15:09:56;35.30;99.90
5286;DHT22;2665;53.112;7.358;2023-06-14T15:12:22;33.80;99.90
5286;DHT22;2665;53.112;7.358;2023-06-14T15:14:52;32.50;99.90
5286;DHT22;2665;53.112;7.358;2023-06-14T15:17:18;31.40;99.90
5286;DHT22;2665;53.112;7.358;2023-06-14T15:19:45;30.60;99.90
5286;DHT22;2665;53.112;7.358;2023-06-14T15:22:11;30.60;99.90
5286;DHT22;2665;53.112;7.358;2023-06-14T15:24:37;31.70;99.90
5286;DHT22;2665;53.112;7.358;2023-06-14T15:27:03;32.60;99.90
5286;DHT22;2665;53.112;7.358;2023-06-14T15:29:28;33.10;99.90
5286;DHT22;2665;53.112;7.358;2023-06-14T15:31:54;33.80;99.90
5286;DHT22;2665;53.112;7.358;2023-06-14T15:34:20;34.10;99.90
5286;DHT22;2665;53.112;7.358;2023-06-14T15:36:46;34.00;99.90
5286;DHT22;2665;53.112;7.358;2023-06-14T15:39:12;34.00;99.90
5286;DHT22;2665;53.112;7.358;2023-06-14T15:41:37;34.10;99.90
5286;DHT22;2665;53.112;7.358;2023-06-14T15:44:03;34.30;99.90
5286;DHT22;2665;53.112;7.358;2023-06-14T15:46:29;34.60;99.90
5286;DHT22;2665;53.112;7.358;2023-06-14T15:48:55;34.50;99.90
5286;DHT22;2665;53.112;7.358;2023-06-14T15:51:20;33.20;99.90
5286;DHT22;2665;53.112;7.358;2023-06-14T15:53:46;31.60;99.90
5286;DHT22;2665;53.112;7.358;2023-06-14T15:56:11;30.30;99.90
5286;DHT22;2665;53.112;7.358;2023-06-14T15:58:37;29.30;99.90
5286;DHT22;2665;53.112;7.358;2023-06-14T16:01:02;29.30;99.90
5286;DHT22;2665;53.112;7.358;2023-06-14T16:03:28;30.30;99.90
5286;DHT22;2665;53.112;7.358;2023-06-14T16:05:54;31.30;99.90
5286;DHT22;2665;53.112;7.358;2023-06-14T16:08:19;32.10;99.90
5286;DHT22;2665;53.112;7.358;2023-06-14T16:10:45;32.70;99.90
5286;DHT22;2665;53.112;7.358;2023-06-14T16:13:11;33.30;99.90
5286;DHT22;2665;53.112;7.358;2023-06-14T16:15:36;33.80;99.90
5286;DHT22;2665;53.112;7.358;2023-06-14T16:18:02;34.20;99.90
5286;DHT22;2665;53.112;7.358;2023-06-14T16:20:27;34.40;99.90
5286;DHT22;2665;53.112;7.358;2023-06-14T16:22:53;34.10;99.90
5286;DHT22;2665;53.112;7.358;2023-06-14T16:25:18;34.00;99.90
5286;DHT22;2665;53.112;7.358;2023-06-14T16:27:44;34.00;99.90
5286;DHT22;2665;53.112;7.358;2023-06-14T16:30:10;34.10;99.90
5286;DHT22;2665;53.112;7.358;2023-06-14T16:32:36;33.90;99.90
5286;DHT22;2665;53.112;7.358;2023-06-14T16:35:01;33.50;99.90
5286;DHT22;2665;53.112;7.358;2023-06-14T16:37:27;33.40;99.90
5286;DHT22;2665;53.112;7.358;2023-06-14T16:39:52;33.50;99.90
5286;DHT22;2665;53.112;7.358;2023-06-14T16:42:20;33.70;99.90
5286;DHT22;2665;53.112;7.358;2023-06-14T16:44:46;33.80;99.90
5286;DHT22;2665;53.112;7.358;2023-06-14T16:47:11;33.80;99.90
5286;DHT22;2665;53.112;7.358;2023-06-14T16:49:37;33.60;99.90
5286;DHT22;2665;53.112;7.358;2023-06-14T16:52:03;33.50;99.90
5286;DHT22;2665;53.112;7.358;2023-06-14T16:54:29;33.40;99.90
5286;DHT22;2665;53.112;7.358;2023-06-14T16:56:54;33.30;99.90
5286;DHT22;2665;53.112;7.358;2023-06-14T16:59:20;33.30;99.90
5286;DHT22;2665;53.112;7.358;2023-06-14T17:01:49;33.30;99.90
5286;DHT22;2665;53.112;7.358;2023-06-14T17:04:14;33.30;99.90
5286;DHT22;2665;53.112;7.358;2023-06-14T17:06:40;32.90;99.90
5286;DHT22;2665;53.112;7.358;2023-06-14T17:09:06;32.30;99.90
5286;DHT22;2665;53.112;7.358;2023-06-14T17:11:33;31.70;99.90
5286;DHT22;2665;53.112;7.358;2023-06-14T17:13:58;31.40;99.90
5286;DHT22;2665;53.112;7.358;2023-06-14T17:16:24;31.00;99.90
5286;DHT22;2665;53.112;7.358;2023-06-14T17:18:50;30.00;99.90
5286;DHT22;2665;53.112;7.358;2023-06-14T17:21:16;28.90;99.90
5286;DHT22;2665;53.112;7.358;2023-06-14T17:23:42;28.10;99.90
5286;DHT22;2665;53.112;7.358;2023-06-14T17:26:07;27.60;99.90
5286;DHT22;2665;53.112;7.358;2023-06-14T17:28:34;27.20;99.90
5286;DHT22;2665;53.112;7.358;2023-06-14T17:31:01;27.30;99.90
5286;DHT22;2665;53.112;7.358;2023-06-14T17:33:26;27.20;99.90
5286;DHT22;2665;53.112;7.358;2023-06-14T17:35:52;26.90;99.90
5286;DHT22;2665;53.112;7.358;2023-06-14T17:38:17;26.90;99.90
5286;DHT22;2665;53.112;7.358;2023-06-14T17:40:43;26.60;99.90
5286;DHT22;2665;53.112;7.358;2023-06-14T17:43:09;26.20;99.90
5286;DHT22;2665;53.112;7.358;2023-06-14T17:45:34;25.80;99.90
5286;DHT22;2665;53.112;7.358;2023-06-14T17:48:00;25.50;99.90
5286;DHT22;2665;53.112;7.358;2023-06-14T17:50:26;25.10;99.90
5286;DHT22;2665;53.112;7.358;2023-06-14T17:52:51;24.80;99.90
5286;DHT22;2665;53.112;7.358;2023-06-14T17:55:17;24.60;99.90
5286;DHT22;2665;53.112;7.358;2023-06-14T17:57:43;24.40;99.90
5286;DHT22;2665;53.112;7.358;2023-06-14T18:00:09;24.40;99.90
5286;DHT22;2665;53.112;7.358;2023-06-14T18:02:34;24.30;99.90
5286;DHT22;2665;53.112;7.358;2023-06-14T18:05:02;24.70;99.90
5286;DHT22;2665;53.112;7.358;2023-06-14T18:07:28;25.30;99.90
5286;DHT22;2665;53.112;7.358;2023-06-14T18:09:54;25.50;99.90
5286;DHT22;2665;53.112;7.358;2023-06-14T18:12:19;25.70;99.90
5286;DHT22;2665;53.112;7.358;2023-06-14T18:14:45;26.00;99.90
5286;DHT22;2665;53.112;7.358;2023-06-14T18:17:11;26.20;99.90
5286;DHT22;2665;53.112;7.358;2023-06-14T18:19:36;26.10;99.90
5286;DHT22;2665;53.112;7.358;2023-06-14T18:22:02;26.00;99.90
5286;DHT22;2665;53.112;7.358;2023-06-14T18:24:30;26.10;99.90
5286;DHT22;2665;53.112;7.358;2023-06-14T18:26:55;26.20;99.90
5286;DHT22;2665;53.112;7.358;2023-06-14T18:29:21;26.20;99.90
5286;DHT22;2665;53.112;7.358;2023-06-14T18:31:47;26.10;99.90
5286;DHT22;2665;53.112;7.358;2023-06-14T18:34:13;26.10;99.90
5286;DHT22;2665;53.112;7.358;2023-06-14T18:36:38;26.00;99.90
5286;DHT22;2665;53.112;7.358;2023-06-14T18:39:05;26.00;99.90
5286;DHT22;2665;53.112;7.358;2023-06-14T18:41:31;25.90;99.90
5286;DHT22;2665;53.112;7.358;2023-06-14T18:43:57;25.60;99.90
5286;DHT22;2665;53.112;7.358;2023-06-14T18:46:24;25.30;99.90
5286;DHT22;2665;53.112;7.358;2023-06-14T18:48:51;25.10;99.90
5286;DHT22;2665;53.112;7.358;2023-06-14T18:51:17;24.90;99.90
5286;DHT22;2665;53.112;7.358;2023-06-14T18:53:42;24.60;99.90
5286;DHT22;2665;53.112;7.358;2023-06-14T18:56:08;24.20;99.90
5286;DHT22;2665;53.112;7.358;2023-06-14T18:58:34;23.90;99.90
5286;DHT22;2665;53.112;7.358;2023-06-14T19:01:00;23.60;99.90
5286;DHT22;2665;53.112;7.358;2023-06-14T19:03:25;23.30;99.90
5286;DHT22;2665;53.112;7.358;2023-06-14T19:05:51;23.00;99.90
5286;DHT22;2665;53.112;7.358;2023-06-14T19:08:17;22.70;99.90
5286;DHT22;2665;53.112;7.358;2023-06-14T19:10:42;22.50;99.90
5286;DHT22;2665;53.112;7.358;2023-06-14T19:13:08;22.30;99.90
5286;DHT22;2665;53.112;7.358;2023-06-14T19:15:37;22.00;99.90
5286;DHT22;2665;53.112;7.358;2023-06-14T19:18:03;21.90;99.90
5286;DHT22;2665;53.112;7.358;2023-06-14T19:20:31;21.60;99.90
5286;DHT22;2665;53.112;7.358;2023-06-14T19:22:57;21.50;99.90
5286;DHT22;2665;53.112;7.358;2023-06-14T19:25:23;21.30;99.90
5286;DHT22;2665;53.112;7.358;2023-06-14T19:27:49;21.20;99.90
5286;DHT22;2665;53.112;7.358;2023-06-14T19:30:15;21.00;99.90
5286;DHT22;2665;53.112;7.358;2023-06-14T19:32:41;20.90;99.90
5286;DHT22;2665;53.112;7.358;2023-06-14T19:35:08;20.70;99.90
5286;DHT22;2665;53.112;7.358;2023-06-14T19:37:34;20.60;99.90
5286;DHT22;2665;53.112;7.358;2023-06-14T19:40:01;20.50;99.90
5286;DHT22;2665;53.112;7.358;2023-06-14T19:42:27;20.40;99.90
5286;DHT22;2665;53.112;7.358;2023-06-14T19:44:53;20.30;99.90
5286;DHT22;2665;53.112;7.358;2023-06-14T19:47:18;20.30;99.90
5286;DHT22;2665;53.112;7.358;2023-06-14T19:49:44;20.20;99.90
5286;DHT22;2665;53.112;7.358;2023-06-14T19:52:10;20.20;99.90
5286;DHT22;2665;53.112;7.358;2023-06-14T19:54:36;20.10;99.90
5286;DHT22;2665;53.112;7.358;2023-06-14T19:57:01;20.00;99.90
5286;DHT22;2665;53.112;7.358;2023-06-14T19:59:27;19.90;99.90
5286;DHT22;2665;53.112;7.358;2023-06-14T20:01:52;19.90;99.90
5286;DHT22;2665;53.112;7.358;2023-06-14T20:04:18;19.80;99.90
5286;DHT22;2665;53.112;7.358;2023-06-14T20:06:43;19.70;99.90
5286;DHT22;2665;53.112;7.358;2023-06-14T20:09:09;19.60;99.90
5286;DHT22;2665;53.112;7.358;2023-06-14T20:11:39;19.50;99.90
5286;DHT22;2665;53.112;7.358;2023-06-14T20:14:05;19.40;99.90
5286;DHT22;2665;53.112;7.358;2023-06-14T20:16:31;19.30;99.90
5286;DHT22;2665;53.112;7.358;2023-06-14T20:18:58;19.20;99.90
5286;DHT22;2665;53.112;7.358;2023-06-14T20:21:26;19.10;99.90
5286;DHT22;2665;53.112;7.358;2023-06-14T20:23:52;19.10;99.90
5286;DHT22;2665;53.112;7.358;2023-06-14T20:26:17;19.00;99.90
5286;DHT22;2665;53.112;7.358;2023-06-14T20:28:43;18.90;99.90
5286;DHT22;2665;53.112;7.358;2023-06-14T20:31:08;18.90;99.90
5286;DHT22;2665;53.112;7.358;2023-06-14T20:33:35;18.80;99.90
5286;DHT22;2665;53.112;7.358;2023-06-14T20:36:02;18.70;99.90
5286;DHT22;2665;53.112;7.358;2023-06-14T20:38:27;18.60;99.90
5286;DHT22;2665;53.112;7.358;2023-06-14T20:40:53;18.60;99.90
5286;DHT22;2665;53.112;7.358;2023-06-14T20:43:25;18.50;99.90
5286;DHT22;2665;53.112;7.358;2023-06-14T20:45:51;18.50;99.90
5286;DHT22;2665;53.112;7.358;2023-06-14T20:48:23;18.40;99.90
5286;DHT22;2665;53.112;7.358;2023-06-14T20:50:50;18.30;99.90
5286;DHT22;2665;53.112;7.358;2023-06-14T20:53:15;18.30;99.90
5286;DHT22;2665;53.112;7.358;2023-06-14T20:55:41;18.20;99.90
5286;DHT22;2665;53.112;7.358;2023-06-14T20:58:07;18.20;99.90
5286;DHT22;2665;53.112;7.358;2023-06-14T21:00:33;18.10;99.90
5286;DHT22;2665;53.112;7.358;2023-06-14T21:03:01;18.10;99.90
5286;DHT22;2665;53.112;7.358;2023-06-14T21:05:31;18.00;99.90
5286;DHT22;2665;53.112;7.358;2023-06-14T21:07:57;17.90;99.90
5286;DHT22;2665;53.112;7.358;2023-06-14T21:10:23;17.90;99.90
5286;DHT22;2665;53.112;7.358;2023-06-14T21:12:49;17.80;99.90
5286;DHT22;2665;53.112;7.358;2023-06-14T21:15:14;17.80;99.90
5286;DHT22;2665;53.112;7.358;2023-06-14T21:17:40;17.70;99.90
5286;DHT22;2665;53.112;7.358;2023-06-14T21:20:07;17.70;99.90
5286;DHT22;2665;53.112;7.358;2023-06-14T21:22:35;17.60;99.90
5286;DHT22;2665;53.112;7.358;2023-06-14T21:25:01;17.60;99.90
5286;DHT22;2665;53.112;7.358;2023-06-14T21:27:26;17.50;99.90
5286;DHT22;2665;53.112;7.358;2023-06-14T21:29:52;17.50;99.90
5286;DHT22;2665;53.112;7.358;2023-06-14T21:32:19;17.50;99.90
5286;DHT22;2665;53.112;7.358;2023-06-14T21:34:45;17.40;99.90
5286;DHT22;2665;53.112;7.358;2023-06-14T21:37:11;17.30;99.90
5286;DHT22;2665;53.112;7.358;2023-06-14T21:39:37;17.30;99.90
5286;DHT22;2665;53.112;7.358;2023-06-14T21:42:04;17.30;99.90
5286;DHT22;2665;53.112;7.358;2023-06-14T21:44:32;17.20;99.90
5286;DHT22;2665;53.112;7.358;2023-06-14T21:46:58;17.20;99.90
5286;DHT22;2665;53.112;7.358;2023-06-14T21:49:23;17.20;99.90
5286;DHT22;2665;53.112;7.358;2023-06-14T21:51:49;17.10;99.90
5286;DHT22;2665;53.112;7.358;2023-06-14T21:54:15;17.10;99.90
5286;DHT22;2665;53.112;7.358;2023-06-14T21:56:40;17.00;99.90
5286;DHT22;2665;53.112;7.358;2023-06-14T21:59:06;16.90;99.90
5286;DHT22;2665;53.112;7.358;2023-06-14T22:01:31;16.90;99.90
5286;DHT22;2665;53.112;7.358;2023-06-14T22:03:57;16.90;99.90
5286;DHT22;2665;53.112;7.358;2023-06-14T22:06:23;16.80;99.90
5286;DHT22;2665;53.112;7.358;2023-06-14T22:08:48;16.80;99.90
5286;DHT22;2665;53.112;7.358;2023-06-14T22:11:14;16.80;99.90
5286;DHT22;2665;53.112;7.358;2023-06-14T22:13:40;16.80;99.90
5286;DHT22;2665;53.112;7.358;2023-06-14T22:16:08;16.80;99.90
5286;DHT22;2665;53.112;7.358;2023-06-14T22:18:35;16.80;99.90
5286;DHT22;2665;53.112;7.358;2023-06-14T22:21:02;16.70;99.90
5286;DHT22;2665;53.112;7.358;2023-06-14T22:23:28;16.70;99.90
5286;DHT22;2665;53.112;7.358;2023-06-14T22:26:02;16.70;99.90
5286;DHT22;2665;53.112;7.358;2023-06-14T22:28:29;16.70;99.90
5286;DHT22;2665;53.112;7.358;2023-06-14T22:31:07;16.70;99.90
5286;DHT22;2665;53.112;7.358;2023-06-14T22:33:34;16.70;99.90
5286;DHT22;2665;53.112;7.358;2023-06-14T22:36:05;16.70;99.90
5286;DHT22;2665;53.112;7.358;2023-06-14T22:38:34;16.70;99.90
5286;DHT22;2665;53.112;7.358;2023-06-14T22:41:01;16.70;99.90
5286;DHT22;2665;53.112;7.358;2023-06-14T22:43:27;16.70;99.90
5286;DHT22;2665;53.112;7.358;2023-06-14T22:45:53;16.60;99.90
5286;DHT22;2665;53.112;7.358;2023-06-14T22:48:19;16.60;99.90
5286;DHT22;2665;53.112;7.358;2023-06-14T22:50:45;16.60;99.90
5286;DHT22;2665;53.112;7.358;2023-06-14T22:53:11;16.50;99.90
5286;DHT22;2665;53.112;7.358;2023-06-14T22:55:37;16.50;99.90
5286;DHT22;2665;53.112;7.358;2023-06-14T22:58:02;16.40;99.90
5286;DHT22;2665;53.112;7.358;2023-06-14T23:00:28;16.40;99.90
5286;DHT22;2665;53.112;7.358;2023-06-14T23:02:54;16.30;99.90
5286;DHT22;2665;53.112;7.358;2023-06-14T23:05:20;16.30;99.90
5286;DHT22;2665;53.112;7.358;2023-06-14T23:07:46;16.20;99.90
5286;DHT22;2665;53.112;7.358;2023-06-14T23:10:12;16.20;99.90
5286;DHT22;2665;53.112;7.358;2023-06-14T23:12:37;16.20;99.90
5286;DHT22;2665;53.112;7.358;2023-06-14T23:15:06;16.10;99.90
5286;DHT22;2665;53.112;7.358;2023-06-14T23:17:33;16.00;99.90
5286;DHT22;2665;53.112;7.358;2023-06-14T23:20:01;16.00;99.90
5286;DHT22;2665;53.112;7.358;2023-06-14T23:22:32;16.00;99.90
5286;DHT22;2665;53.112;7.358;2023-06-14T23:25:04;16.00;99.90
5286;DHT22;2665;53.112;7.358;2023-06-14T23:27:32;15.90;99.90
5286;DHT22;2665;53.112;7.358;2023-06-14T23:30:00;15.90;99.90
5286;DHT22;2665;53.112;7.358;2023-06-14T23:32:29;15.90;99.90
5286;DHT22;2665;53.112;7.358;2023-06-14T23:35:00;15.90;99.90
5286;DHT22;2665;53.112;7.358;2023-06-14T23:37:26;15.90;99.90
5286;DHT22;2665;53.112;7.358;2023-06-14T23:39:51;15.80;99.90
5286;DHT22;2665;53.112;7.358;2023-06-14T23:42:19;15.80;99.90
5286;DHT22;2665;53.112;7.358;2023-06-14T23:44:45;15.80;99.90
